createdAt,value
2019-03-26T00:01:10.056Z,100560.13
2019-03-26T00:04:05.309Z,100557.16
2019-03-26T00:06:28.654Z,100559.41
2019-03-26T00:09:01.262Z,100552.08
2019-03-26T00:11:34.902Z,100559.02
2019-03-26T00:14:07.617Z,100562.54
2019-03-26T00:16:40.372Z,100560.78
2019-03-26T00:19:13.056Z,100554.94
2019-03-26T00:21:45.953Z,100561.38
2019-03-26T00:24:18.603Z,100562.72
2019-03-26T00:26:51.925Z,100564.10
2019-03-26T00:29:24.563Z,100563.34
2019-03-26T00:31:57.400Z,100562.05
2019-03-26T00:34:30.034Z,100563.84
2019-03-26T00:37:02.942Z,100560.06
2019-03-26T00:39:35.546Z,100561.48
2019-03-26T00:42:08.227Z,100561.09
2019-03-26T00:44:40.852Z,100576.62
2019-03-26T00:47:13.414Z,100577.50
2019-03-26T00:49:46.030Z,100574.95
2019-03-26T00:52:18.818Z,100582.80
2019-03-26T00:54:51.418Z,100583.22
2019-03-26T00:57:24.280Z,100585.96
2019-03-26T00:59:56.876Z,100587.72
2019-03-26T01:02:29.537Z,100589.13
2019-03-26T01:05:02.146Z,100585.69
2019-03-26T01:07:35.016Z,100589.55
2019-03-26T01:10:09.653Z,100584.40
2019-03-26T01:12:42.929Z,100594.50
2019-03-26T01:15:15.567Z,100596.06
2019-03-26T01:17:48.239Z,100590.84
2019-03-26T01:20:20.798Z,100598.31
2019-03-26T01:22:53.749Z,100599.19
2019-03-26T01:25:26.445Z,100597.13
2019-03-26T01:27:59.515Z,100594.11
2019-03-26T01:30:32.088Z,100595.48
2019-03-26T01:33:04.769Z,100599.41
2019-03-26T01:35:37.353Z,100606.77
2019-03-26T01:38:10.108Z,100610.23
2019-03-26T01:40:42.786Z,100608.94
2019-03-26T01:43:15.533Z,100616.33
2019-03-26T01:45:48.125Z,100626.09
2019-03-26T01:48:20.969Z,100626.44
2019-03-26T01:50:53.505Z,100629.42
2019-03-26T01:53:26.322Z,100635.79
2019-03-26T01:55:58.889Z,100643.39
2019-03-26T01:58:31.788Z,100646.02
2019-03-26T02:01:04.356Z,100647.09
2019-03-26T02:03:36.972Z,100647.55
2019-03-26T02:06:09.518Z,100644.57
2019-03-26T02:08:42.186Z,100639.58
2019-03-26T02:11:14.773Z,100643.37
2019-03-26T02:13:47.518Z,100633.84
2019-03-26T02:16:20.089Z,100636.26
2019-03-26T02:18:52.653Z,100643.55
2019-03-26T02:21:25.363Z,100641.27
2019-03-26T02:23:58.077Z,100647.43
2019-03-26T02:26:30.762Z,100647.36
2019-03-26T02:29:03.544Z,100652.09
2019-03-26T02:31:36.166Z,100652.61
2019-03-26T02:34:08.908Z,100644.49
2019-03-26T02:36:41.509Z,100646.66
2019-03-26T02:39:14.185Z,100648.45
2019-03-26T02:41:46.960Z,100650.16
2019-03-26T02:44:19.932Z,100657.13
2019-03-26T02:46:52.543Z,100654.92
2019-03-26T02:49:25.261Z,100651.53
2019-03-26T02:51:57.987Z,100652.96
2019-03-26T02:54:30.594Z,100650.44
2019-03-26T02:57:03.156Z,100655.02
2019-03-26T02:59:36.222Z,100655.12
2019-03-26T03:02:08.779Z,100659.43
2019-03-26T03:04:41.403Z,100657.74
2019-03-26T03:07:14.035Z,100663.58
2019-03-26T03:09:46.658Z,100667.07
2019-03-26T03:12:19.323Z,100669.98
2019-03-26T03:14:52.357Z,100666.00
2019-03-26T03:17:24.924Z,100674.64
2019-03-26T03:19:57.787Z,100679.72
2019-03-26T03:22:30.622Z,100687.48
2019-03-26T03:25:03.435Z,100682.30
2019-03-26T03:27:36.031Z,100685.34
2019-03-26T03:30:13.106Z,100685.77
2019-03-26T03:32:45.670Z,100685.47
2019-03-26T03:35:18.679Z,100687.18
2019-03-26T03:37:51.235Z,100694.05
2019-03-26T03:40:24.033Z,100694.95
2019-03-26T03:42:56.621Z,100694.16
2019-03-26T03:45:33.885Z,100696.72
2019-03-26T03:48:06.818Z,100700.22
2019-03-26T03:50:40.956Z,100701.36
2019-03-26T03:53:18.535Z,100705.64
2019-03-26T03:55:53.671Z,100702.95
2019-03-26T03:58:29.442Z,100711.20
2019-03-26T04:01:02.473Z,100715.12
2019-03-26T04:03:35.065Z,100708.73
2019-03-26T04:06:09.938Z,100705.97
2019-03-26T04:08:42.022Z,100701.63
2019-03-26T04:11:15.733Z,100703.34
2019-03-26T04:13:48.332Z,100702.05
2019-03-26T04:16:21.300Z,100699.79
2019-03-26T04:18:53.939Z,100709.55
2019-03-26T04:21:26.565Z,100706.89
2019-03-26T04:23:59.133Z,100708.13
2019-03-26T04:26:31.762Z,100711.10
2019-03-26T04:29:04.332Z,100711.49
2019-03-26T04:31:37.209Z,100710.49
2019-03-26T04:34:09.777Z,100710.14
2019-03-26T04:36:42.659Z,100709.48
2019-03-26T04:39:15.212Z,100712.41
2019-03-26T04:41:47.814Z,100707.61
2019-03-26T04:44:20.389Z,100708.52
2019-03-26T04:46:53.267Z,100708.55
2019-03-26T04:49:25.864Z,100705.60
2019-03-26T04:51:58.481Z,100698.90
2019-03-26T04:54:31.051Z,100691.09
2019-03-26T04:57:03.739Z,100689.53
2019-03-26T04:59:36.388Z,100697.72
2019-03-26T05:02:09.462Z,100695.23
2019-03-26T05:04:42.065Z,100702.91
2019-03-26T05:07:14.707Z,100709.28
2019-03-26T05:09:47.324Z,100711.67
2019-03-26T05:12:19.992Z,100718.81
2019-03-26T05:14:52.579Z,100715.32
2019-03-26T05:17:25.415Z,100717.48
2019-03-26T05:19:58.069Z,100722.80
2019-03-26T05:22:30.715Z,100724.48
2019-03-26T05:25:03.277Z,100730.38
2019-03-26T05:27:45.384Z,100734.33
2019-03-26T05:30:10.983Z,100734.52
2019-03-26T05:32:44.193Z,100733.91
2019-03-26T05:35:16.955Z,100747.78
2019-03-26T05:37:49.846Z,100740.29
2019-03-26T05:40:22.427Z,100741.97
2019-03-26T05:42:55.162Z,100749.27
2019-03-26T05:45:27.713Z,100746.95
2019-03-26T05:48:00.601Z,100743.59
2019-03-26T05:50:33.187Z,100750.03
2019-03-26T05:53:05.771Z,100745.19
2019-03-26T05:55:38.347Z,100747.55
2019-03-26T05:58:10.937Z,100746.94
2019-03-26T06:00:43.551Z,100751.80
2019-03-26T06:03:16.353Z,100743.30
2019-03-26T06:05:48.926Z,100743.48
2019-03-26T06:08:21.643Z,100752.44
2019-03-26T06:10:54.208Z,100750.62
2019-03-26T06:13:26.893Z,100747.61
2019-03-26T06:15:59.461Z,100745.73
2019-03-26T06:18:32.279Z,100745.57
2019-03-26T06:21:05.785Z,100745.89
2019-03-26T06:23:38.618Z,100746.44
2019-03-26T06:26:11.165Z,100741.38
2019-03-26T06:28:44.064Z,100747.31
2019-03-26T06:31:16.622Z,100732.80
2019-03-26T06:33:49.850Z,100739.91
2019-03-26T06:36:22.412Z,100743.31
2019-03-26T06:38:55.229Z,100739.36
2019-03-26T06:41:27.804Z,100732.00
2019-03-26T06:44:00.421Z,100741.28
2019-03-26T06:46:32.997Z,100739.71
2019-03-26T06:49:06.242Z,100734.17
2019-03-26T06:51:38.813Z,100733.93
2019-03-26T06:54:11.760Z,100742.09
2019-03-26T06:56:44.304Z,100746.44
2019-03-26T06:59:16.964Z,100742.05
2019-03-26T07:01:50.226Z,100735.58
2019-03-26T07:04:24.318Z,100730.69
2019-03-26T07:06:57.907Z,100728.80
2019-03-26T07:09:31.067Z,100725.00
2019-03-26T07:12:03.681Z,100726.27
2019-03-26T07:14:36.437Z,100728.95
2019-03-26T07:17:09.050Z,100729.41
2019-03-26T07:19:42.515Z,100723.83
2019-03-26T07:22:15.128Z,100720.27
2019-03-26T07:24:48.036Z,100722.64
2019-03-26T07:27:20.659Z,100731.80
2019-03-26T07:29:53.302Z,100723.41
2019-03-26T07:32:25.890Z,100720.73
2019-03-26T07:34:58.805Z,100723.64
2019-03-26T07:37:44.152Z,100731.42
2019-03-26T07:40:07.695Z,100727.19
2019-03-26T07:42:40.289Z,100724.09
2019-03-26T07:45:13.920Z,100720.17
2019-03-26T07:47:48.245Z,100725.47
2019-03-26T07:50:21.119Z,100734.13
2019-03-26T07:52:53.676Z,100730.02
2019-03-26T07:55:26.478Z,100727.45
2019-03-26T07:57:59.063Z,100726.67
2019-03-26T08:00:37.168Z,100725.63
2019-03-26T08:03:10.024Z,100729.16
2019-03-26T08:05:42.769Z,100730.62
2019-03-26T08:08:15.379Z,100718.64
2019-03-26T08:10:48.305Z,100710.32
2019-03-26T08:13:20.936Z,100703.87
2019-03-26T08:15:53.970Z,100701.03
2019-03-26T08:18:26.641Z,100706.39
2019-03-26T08:20:59.548Z,100711.38
2019-03-26T08:36:40.780Z,100694.84
2019-03-26T08:39:13.647Z,100692.43
2019-03-26T08:41:46.478Z,100693.77
2019-03-26T08:44:19.122Z,100689.83
2019-03-26T08:46:51.934Z,100691.05
2019-03-26T08:49:30.467Z,100683.12
2019-03-26T08:51:59.166Z,100689.20
2019-03-26T08:54:31.800Z,100685.02
2019-03-26T08:57:04.719Z,100678.44
2019-03-26T08:59:37.582Z,100665.41
2019-03-26T09:02:11.631Z,100663.91
2019-03-26T09:04:44.311Z,100653.49
2019-03-26T09:07:17.181Z,100650.34
2019-03-26T09:09:49.984Z,100649.98
2019-03-26T09:12:22.945Z,100645.00
2019-03-26T09:14:56.121Z,100651.97
2019-03-26T09:17:29.031Z,100635.00
2019-03-26T09:20:01.688Z,100631.02
2019-03-26T09:22:34.900Z,100630.88
2019-03-26T09:27:48.761Z,100626.78
2019-03-26T09:30:21.516Z,100610.44
2019-03-26T09:32:54.346Z,100613.37
2019-03-26T09:35:26.957Z,100610.58
2019-03-26T09:37:59.601Z,100601.82
2019-03-26T09:40:32.196Z,100604.41
2019-03-26T09:43:05.039Z,100616.16
2019-03-26T09:45:37.928Z,100596.94
2019-03-26T09:48:10.713Z,100616.42
2019-03-26T09:50:44.547Z,100601.08
2019-03-26T09:53:17.744Z,100601.87
2019-03-26T09:55:50.320Z,100583.53
2019-03-26T09:58:23.031Z,100594.22
2019-03-26T10:00:55.673Z,100595.92
2019-03-26T10:03:28.535Z,100592.64
2019-03-26T10:06:01.109Z,100592.68
2019-03-26T10:08:34.023Z,100585.62
2019-03-26T10:11:06.630Z,100584.69
2019-03-26T10:13:39.682Z,100592.19
2019-03-26T10:16:12.485Z,100577.45
2019-03-26T10:18:45.142Z,100573.72
2019-03-26T10:21:17.805Z,100568.87
2019-03-26T10:23:50.718Z,100561.95
2019-03-26T10:26:23.331Z,100548.20
2019-03-26T10:28:56.173Z,100547.42
2019-03-26T10:31:29.128Z,100536.91
2019-03-26T10:34:01.751Z,100541.38
2019-03-26T10:36:34.782Z,100531.23
2019-03-26T10:39:09.595Z,100526.96
2019-03-26T10:41:42.164Z,100521.05
2019-03-26T10:44:16.084Z,100510.27
2019-03-26T10:46:49.196Z,100508.13
2019-03-26T10:49:21.911Z,100515.98
2019-03-26T10:51:54.554Z,100505.78
2019-03-26T10:54:27.382Z,100490.79
2019-03-26T10:56:59.985Z,100473.66
2019-03-26T10:59:32.680Z,100463.62
2019-03-26T11:02:05.668Z,100444.08
2019-03-26T11:04:38.614Z,100438.11
2019-03-26T11:07:11.382Z,100429.87
2019-03-26T11:09:45.099Z,100435.81
2019-03-26T11:12:17.672Z,100432.66
2019-03-26T11:14:50.369Z,100426.69
2019-03-26T11:17:24.231Z,100429.11
2019-03-26T11:19:56.923Z,100416.35
2019-03-26T11:22:29.505Z,100408.12
2019-03-26T11:25:02.247Z,100397.06
2019-03-26T11:27:34.875Z,100387.93
2019-03-26T11:30:09.095Z,100392.32
2019-03-26T11:32:42.030Z,100388.58
2019-03-26T11:35:14.899Z,100378.55
2019-03-26T11:37:47.569Z,100371.98
2019-03-26T11:40:20.592Z,100355.95
2019-03-26T11:42:53.255Z,100364.22
2019-03-26T11:45:26.005Z,100357.05
2019-03-26T11:47:59.022Z,100344.94
2019-03-26T11:50:31.671Z,100337.87
2019-03-26T11:53:04.482Z,100330.59
2019-03-26T11:55:37.169Z,100321.75
2019-03-26T11:58:09.769Z,100322.72
2019-03-26T12:00:42.705Z,100312.88
2019-03-26T12:03:15.639Z,100319.50
2019-03-26T12:05:48.253Z,100319.23
2019-03-26T12:08:20.893Z,100323.53
2019-03-26T12:10:53.638Z,100316.67
2019-03-26T12:13:26.248Z,100305.09
2019-03-26T12:15:58.951Z,100327.52
2019-03-26T12:18:31.538Z,100299.20
2019-03-26T12:21:04.453Z,100291.73
2019-03-26T12:23:37.057Z,100313.69
2019-03-26T12:26:11.141Z,100275.05
2019-03-26T12:28:43.724Z,100297.19
2019-03-26T12:31:16.343Z,100271.38
2019-03-26T12:33:49.078Z,100267.09
2019-03-26T12:36:21.891Z,100289.13
2019-03-26T12:38:54.481Z,100306.08
2019-03-26T12:41:27.137Z,100316.79
2019-03-26T12:43:59.727Z,100311.66
2019-03-26T12:46:32.724Z,100290.03
2019-03-26T12:49:05.555Z,100319.75
2019-03-26T12:51:39.455Z,100312.91
2019-03-26T12:54:12.203Z,100307.66
2019-03-26T12:56:44.945Z,100307.73
2019-03-26T12:59:17.594Z,100314.49
2019-03-26T13:01:50.510Z,100317.27
2019-03-26T13:04:23.479Z,100320.33
2019-03-26T13:06:56.278Z,100311.28
2019-03-26T13:09:28.863Z,100312.89
2019-03-26T13:12:01.747Z,100304.50
2019-03-26T13:14:34.763Z,100307.80
2019-03-26T13:17:07.522Z,100321.46
2019-03-26T13:19:40.501Z,100320.62
2019-03-26T13:22:13.389Z,100322.55
2019-03-26T13:24:45.993Z,100309.94
2019-03-26T13:27:18.744Z,100325.86
2019-03-26T13:29:51.421Z,100327.78
2019-03-26T13:32:24.341Z,100314.86
2019-03-26T13:34:57.066Z,100320.36
2019-03-26T13:37:29.983Z,100306.11
2019-03-26T13:40:02.573Z,100303.00
2019-03-26T13:42:35.455Z,100315.86
2019-03-26T13:45:09.274Z,100305.91
2019-03-26T13:47:42.144Z,100312.28
2019-03-26T13:50:15.795Z,100304.66
2019-03-26T13:52:48.484Z,100306.60
2019-03-26T13:55:21.225Z,100307.55
2019-03-26T13:57:55.032Z,100312.64
2019-03-26T14:00:37.900Z,100316.31
2019-03-26T14:03:10.919Z,100311.03
2019-03-26T14:05:43.495Z,100307.84
2019-03-26T14:08:16.381Z,100317.97
2019-03-26T14:10:49.015Z,100316.21
2019-03-26T14:13:21.659Z,100320.00
2019-03-26T14:15:54.265Z,100319.11
2019-03-26T14:18:27.102Z,100318.52
2019-03-26T14:21:00.135Z,100315.91
2019-03-26T14:23:32.888Z,100318.52
2019-03-26T14:26:07.172Z,100308.16
2019-03-26T14:28:39.941Z,100304.25
2019-03-26T14:31:12.603Z,100292.72
2019-03-26T14:33:45.483Z,100290.26
2019-03-26T14:36:18.283Z,100279.64
2019-03-26T14:38:50.961Z,100288.37
2019-03-26T14:41:23.617Z,100278.28
2019-03-26T14:43:56.382Z,100273.23
2019-03-26T14:46:28.995Z,100296.20
2019-03-26T14:49:01.661Z,100300.41
2019-03-26T14:51:34.671Z,100301.59
2019-03-26T14:54:07.322Z,100285.44
2019-03-26T14:56:39.974Z,100290.99
2019-03-26T14:59:12.774Z,100271.28
2019-03-26T15:01:45.448Z,100274.31
2019-03-26T15:04:18.440Z,100296.79
2019-03-26T15:06:51.157Z,100292.22
2019-03-26T15:09:23.878Z,100386.23
2019-03-26T15:11:56.615Z,100407.39
2019-03-26T15:14:29.211Z,100440.03
2019-03-26T15:17:01.878Z,100416.69
2019-03-26T15:19:34.449Z,100431.91
2019-03-26T15:22:07.578Z,100424.34
2019-03-26T15:24:40.592Z,100426.55
2019-03-26T15:27:13.191Z,100441.68
2019-03-26T15:29:47.283Z,100425.91
2019-03-26T15:32:19.885Z,100424.39
2019-03-26T15:34:52.736Z,100405.72
2019-03-26T15:37:25.804Z,100419.27
2019-03-26T15:39:58.841Z,100438.70
2019-03-26T15:42:31.527Z,100436.28
2019-03-26T15:45:04.510Z,100431.05
2019-03-26T15:47:37.144Z,100426.92
2019-03-26T15:50:10.891Z,100432.78
2019-03-26T15:52:43.853Z,100409.56
2019-03-26T15:55:16.767Z,100390.59
2019-03-26T15:57:49.882Z,100402.13
2019-03-26T16:00:27.357Z,100418.31
2019-03-26T16:02:59.952Z,100422.48
2019-03-26T16:05:32.806Z,100425.69
2019-03-26T16:08:05.673Z,100431.34
2019-03-26T16:10:38.668Z,100430.64
2019-03-26T16:13:11.234Z,100431.94
2019-03-26T16:15:45.205Z,100425.50
2019-03-26T16:18:18.102Z,100431.16
2019-03-26T16:20:50.787Z,100424.08
2019-03-26T16:23:23.667Z,100436.42
2019-03-26T16:25:56.544Z,100444.78
2019-03-26T16:28:29.190Z,100445.37
2019-03-26T16:31:01.963Z,100447.42
2019-03-26T16:33:35.773Z,100444.37
2019-03-26T16:36:08.573Z,100452.42
2019-03-26T16:38:41.227Z,100452.28
2019-03-26T16:41:14.107Z,100458.91
2019-03-26T16:43:46.683Z,100457.16
2019-03-26T16:46:19.393Z,100467.27
2019-03-26T16:48:52.010Z,100472.80
2019-03-26T16:51:24.758Z,100483.63
2019-03-26T16:53:57.677Z,100481.28
2019-03-26T16:56:30.514Z,100488.07
2019-03-26T16:59:03.472Z,100499.58
2019-03-26T17:01:36.469Z,100501.75
2019-03-26T17:04:09.066Z,100509.22
2019-03-26T17:06:42.073Z,100513.30
2019-03-26T17:09:14.734Z,100518.97
2019-03-26T17:11:47.609Z,100509.62
2019-03-26T17:14:20.205Z,100509.33
2019-03-26T17:16:53.193Z,100517.03
2019-03-26T17:19:25.819Z,100517.53
2019-03-26T17:21:58.743Z,100519.05
2019-03-26T17:24:31.342Z,100516.84
2019-03-26T17:27:04.370Z,100528.85
2019-03-26T17:29:36.966Z,100539.02
2019-03-26T17:32:09.779Z,100545.19
2019-03-26T17:34:42.362Z,100540.42
2019-03-26T17:37:15.263Z,100546.52
2019-03-26T17:39:47.958Z,100548.86
2019-03-26T17:42:20.821Z,100553.77
2019-03-26T17:44:53.406Z,100559.30
2019-03-26T17:47:26.110Z,100559.09
2019-03-26T17:49:59.875Z,100566.79
2019-03-26T17:52:32.851Z,100577.44
2019-03-26T17:55:05.936Z,100585.34
2019-03-26T17:57:38.611Z,100583.91
2019-03-26T18:00:14.985Z,100599.91
2019-03-26T18:02:47.996Z,100606.50
2019-03-26T18:05:29.208Z,100613.46
2019-03-26T18:08:01.859Z,100616.86
2019-03-26T18:10:34.773Z,100617.91
2019-03-26T18:13:07.451Z,100621.02
2019-03-26T18:15:40.069Z,100628.34
2019-03-26T18:18:12.971Z,100628.51
2019-03-26T18:20:45.699Z,100638.94
2019-03-26T18:23:18.470Z,100638.91
2019-03-26T18:25:51.386Z,100643.41
2019-03-26T18:28:24.320Z,100643.95
2019-03-26T18:30:57.080Z,100644.99
2019-03-26T18:33:29.987Z,100650.14
2019-03-26T18:36:02.618Z,100654.41
2019-03-26T18:38:35.274Z,100652.24
2019-03-26T18:41:08.240Z,100660.95
2019-03-26T18:43:41.099Z,100664.51
2019-03-26T18:46:13.798Z,100660.66
2019-03-26T18:48:46.908Z,100671.20
2019-03-26T18:51:19.737Z,100676.49
2019-03-26T18:53:52.521Z,100678.81
2019-03-26T18:56:25.115Z,100684.74
2019-03-26T18:58:57.997Z,100696.00
2019-03-26T19:01:30.766Z,100692.09
2019-03-26T19:04:03.729Z,100701.66
2019-03-26T19:06:37.649Z,100707.56
2019-03-26T19:09:10.906Z,100717.88
2019-03-26T19:11:43.663Z,100723.60
2019-03-26T19:14:16.383Z,100721.37
2019-03-26T19:16:49.078Z,100724.11
2019-03-26T19:19:22.146Z,100729.26
2019-03-26T19:21:54.852Z,100734.23
2019-03-26T19:24:27.679Z,100737.86
2019-03-26T19:27:04.082Z,100747.71
2019-03-26T19:29:35.437Z,100743.38
2019-03-26T19:32:08.247Z,100749.48
2019-03-26T19:34:41.079Z,100759.87
2019-03-26T19:37:13.677Z,100767.63
2019-03-26T19:39:46.765Z,100769.91
2019-03-26T19:42:19.722Z,100768.92
2019-03-26T19:44:52.521Z,100773.29
2019-03-26T19:47:25.649Z,100783.11
2019-03-26T19:49:58.489Z,100776.75
2019-03-26T19:52:31.245Z,100780.58
2019-03-26T19:55:04.155Z,100794.92
2019-03-26T19:57:37.166Z,100794.47
2019-03-26T20:00:13.349Z,100788.00
2019-03-26T20:02:46.183Z,100795.37
2019-03-26T20:05:21.446Z,100789.41
2019-03-26T20:07:54.385Z,100794.41
2019-03-26T20:10:27.127Z,100797.88
2019-03-26T20:13:00.196Z,100809.92
2019-03-26T20:15:33.058Z,100818.05
2019-03-26T20:18:05.737Z,100821.94
2019-03-26T20:20:38.745Z,100826.34
2019-03-26T20:23:11.382Z,100834.94
2019-03-26T20:25:44.211Z,100836.81
2019-03-26T20:28:17.448Z,100834.96
2019-03-26T20:30:49.982Z,100837.70
2019-03-26T20:33:22.676Z,100843.97
2019-03-26T20:35:55.918Z,100849.94
2019-03-26T20:38:28.864Z,100849.97
2019-03-26T20:41:01.799Z,100857.36
2019-03-26T20:43:37.544Z,100859.42
2019-03-26T20:46:09.431Z,100873.66
2019-03-26T20:48:42.165Z,100868.59
2019-03-26T20:51:15.205Z,100876.33
2019-03-26T20:53:47.959Z,100876.33
2019-03-26T20:56:20.724Z,100883.69
2019-03-26T20:58:53.810Z,100890.48
2019-03-26T21:01:27.072Z,100893.23
2019-03-26T21:03:59.856Z,100892.36
2019-03-26T21:06:34.140Z,100893.27
2019-03-26T21:09:09.120Z,100889.36
2019-03-26T21:11:42.802Z,100891.91
2019-03-26T21:14:15.615Z,100898.33
2019-03-26T21:16:48.560Z,100904.83
2019-03-26T21:19:21.229Z,100903.85
2019-03-26T21:21:53.901Z,100903.48
2019-03-26T21:24:26.619Z,100919.79
2019-03-26T21:26:59.409Z,100917.56
2019-03-26T21:29:32.426Z,100921.95
2019-03-26T21:32:05.369Z,100926.28
2019-03-26T21:34:38.084Z,100943.16
2019-03-26T21:37:11.048Z,100940.03
2019-03-26T21:39:43.692Z,100943.06
2019-03-26T21:42:16.355Z,100940.55
2019-03-26T21:44:49.129Z,100951.72
2019-03-26T21:47:22.069Z,100966.41
2019-03-26T21:49:54.713Z,100975.14
2019-03-26T21:52:27.612Z,100971.19
2019-03-26T21:55:00.360Z,100973.75
2019-03-26T21:57:33.046Z,100978.06
2019-03-26T22:00:07.846Z,100985.09
2019-03-26T22:02:42.347Z,100994.98
2019-03-26T22:05:15.035Z,100990.72
2019-03-26T22:07:47.981Z,100997.23
2019-03-26T22:10:20.776Z,101008.12
2019-03-26T22:12:53.517Z,101008.04
2019-03-26T22:15:26.447Z,101016.73
2019-03-26T22:18:00.564Z,101016.65
2019-03-26T22:20:33.308Z,101017.13
2019-03-26T22:23:06.433Z,101011.12
2019-03-26T22:25:39.447Z,101015.04
2019-03-26T22:28:12.227Z,101016.84
2019-03-26T22:30:45.318Z,101020.75
2019-03-26T22:33:18.194Z,101026.38
2019-03-26T22:35:50.810Z,101026.26
2019-03-26T22:38:23.756Z,101025.44
2019-03-26T22:40:56.317Z,101029.36
2019-03-26T22:43:29.116Z,101028.96
2019-03-26T22:46:01.993Z,101034.53
2019-03-26T22:48:34.782Z,101041.39
2019-03-26T22:51:07.404Z,101046.22
2019-03-26T22:53:41.482Z,101048.28
2019-03-26T22:56:14.073Z,101046.20
2019-03-26T22:58:47.043Z,101050.53
2019-03-26T23:01:20.315Z,101054.88
2019-03-26T23:03:53.235Z,101059.66
2019-03-26T23:06:26.368Z,101060.97
2019-03-26T23:08:59.215Z,101068.39
2019-03-26T23:11:33.174Z,101076.62
2019-03-26T23:14:07.443Z,101075.80
2019-03-26T23:16:40.675Z,101075.36
2019-03-26T23:19:13.383Z,101078.36
2019-03-26T23:21:45.989Z,101083.62
2019-03-26T23:24:19.069Z,101077.98
2019-03-26T23:26:52.848Z,101084.16
2019-03-26T23:29:25.772Z,101078.89
2019-03-26T23:31:58.518Z,101079.76
2019-03-26T23:34:31.533Z,101080.23
2019-03-26T23:37:04.137Z,101090.63
2019-03-26T23:39:36.891Z,101088.94
2019-03-26T23:42:09.572Z,101092.80
2019-03-26T23:44:42.223Z,101091.51
2019-03-26T23:47:15.001Z,101095.87
2019-03-26T23:49:47.703Z,101098.45
2019-03-26T23:52:20.361Z,101106.23
2019-03-26T23:54:53.164Z,101110.12
2019-03-26T23:57:25.726Z,101109.29
2019-03-26T23:59:58.855Z,101115.38
